Terminal Aerodrome Forecast
Issued by NWS

Current Version | Previous Version | Text Only | Print | Product List | Glossary On
Versions: 1 2 3 4 5 6 7 8 9 10 11 12 13 14 15
000
FTUS45 KFGZ 230540
TAFGCN
TAF
KGCN 230540Z 2306/2406 VRB06KT P6SM FEW090
     FM232000 24010KT P6SM SCT090 PROB30 2321/2402 VRB15G25KT 5SM
      TSRA BKN060CB
     FM240200 VRB05KT P6SM BKN090=

USA.gov is the U.S. government's official web portal to all federal, state and local government web resources and services.